»·PEaware :: N6262K KVNY-KLAX

N6262K :: KVNY-KLAX

FLIGHT INFORMATION

Flight Status: Arrived
Operator: Privately registered:
United States
More flights under this callsign
Pilot: Judson K. (15650)
Aircraft: PIPER PA-30 TWIN COMANCHE
(PA30)
More flights by this aircraft type
Origin: KVNY Van Nuys
United States
Destination: KLAX Los Angeles Intl
United States
More flights between these airports :: More routes between these airports
Route: +VNY095 PURMS
File this flight plan on PilotEdge
Remarks:
Altitude:
(Current/Filed)
6,000ft
Speed:
(Current/Filed)
140kts
Departed: 29-Dec-17 02:49 PM
Arrived: 29-Dec-17 03:08 PM
Distance/Time
Traveled:
17nm/0:18
Distance/Time
To Go:
Arrived

Flight Plot

Page will automatically refresh every two minutes.


Map Options




Map Legend


Flown Route
Filed Route
Departure Airport
Arrival Airport
Navaid (VOR, NDB)
Fix

Horizontal Profiles

Position Reports

Time Latitude Longitude Heading Altitude Ground
Speed
29-Dec-17 14:22 34.205915 -118.493612 92 769ft 0kts
29-Dec-17 14:23 34.205915 -118.493612 92 769ft 0kts
29-Dec-17 14:24 34.205915 -118.493612 91 769ft 0kts
29-Dec-17 14:25 34.205915 -118.493612 92 769ft 0kts
29-Dec-17 14:26 34.205915 -118.493612 92 769ft 0kts
29-Dec-17 14:27 34.205915 -118.493612 92 769ft 0kts
29-Dec-17 14:28 34.205915 -118.493612 92 769ft 0kts
29-Dec-17 14:29 34.205915 -118.493612 92 769ft 0kts
29-Dec-17 14:30 34.205915 -118.493612 92 769ft 0kts
29-Dec-17 14:31 34.205915 -118.493612 92 769ft 0kts
29-Dec-17 14:32 34.205915 -118.493612 92 769ft 0kts
29-Dec-17 14:33 34.205915 -118.493612 92 769ft 0kts
29-Dec-17 14:34 34.205915 -118.493612 92 769ft 0kts
29-Dec-17 14:35 34.205915 -118.493612 92 769ft 0kts
29-Dec-17 14:36 34.205915 -118.493612 92 769ft 0kts
29-Dec-17 14:37 34.206522 -118.491642 87 770ft 0kts
29-Dec-17 14:38 34.206522 -118.491642 87 770ft 0kts
29-Dec-17 14:39 34.206522 -118.491642 87 770ft 0kts
29-Dec-17 14:40 34.206522 -118.491642 87 770ft 0kts
29-Dec-17 14:41 34.206522 -118.491642 87 770ft 0kts
29-Dec-17 14:42 34.206522 -118.491642 87 770ft 0kts
29-Dec-17 14:43 34.206522 -118.491642 87 770ft 0kts
29-Dec-17 14:44 34.206522 -118.491642 87 770ft 0kts
29-Dec-17 14:45 34.206522 -118.491642 87 770ft 0kts
29-Dec-17 14:46 34.206739 -118.491258 11 770ft 10kts
29-Dec-17 14:47 34.212403 -118.491777 352 783ft 25kts
29-Dec-17 14:48 34.218589 -118.492394 352 797ft 14kts
29-Dec-17 14:49 34.219275 -118.492479 155 798ft 0kts
29-Dec-17 14:50 34.219275 -118.492479 155 798ft 0kts
29-Dec-17 14:51 34.219275 -118.492479 155 798ft 0kts
29-Dec-17 14:52 34.219275 -118.492479 155 798ft 0kts
29-Dec-17 14:53 34.219195 -118.492432 153 798ft 2kts
29-Dec-17 14:54 34.218826 -118.492079 107 798ft 2kts
29-Dec-17 14:55 34.202412 -118.490381 180 1254ft 115kts
29-Dec-17 14:56 34.180824 -118.471673 123 2330ft 138kts
29-Dec-17 14:57 34.160211 -118.430674 122 3480ft 143kts
29-Dec-17 14:58 34.136669 -118.383288 122 4849ft 138kts
29-Dec-17 14:59 34.126780 -118.345063 73 5024ft 170kts
29-Dec-17 15:00 34.134700 -118.288366 84 4983ft 178kts
29-Dec-17 15:01 34.135197 -118.225074 144 5088ft 172kts
29-Dec-17 15:02 34.103840 -118.195003 141 5089ft 172kts
29-Dec-17 15:03 34.066474 -118.159528 141 5112ft 171kts
29-Dec-17 15:04 34.028950 -118.123879 141 5112ft 172kts
29-Dec-17 15:05 33.989337 -118.102320 222 5047ft 167kts
29-Dec-17 15:06 33.965320 -118.149960 232 4566ft 163kts
29-Dec-17 15:07 33.957736 -118.205441 257 3558ft 183kts
29-Dec-17 15:08 33.951641 -118.254486 263 1959ft 109kts
29-Dec-17 15:09 33.947956 -118.284053 262 1301ft 82kts
29-Dec-17 15:10 33.944524 -118.312969 264 1203ft 90kts
29-Dec-17 15:11 33.941480 -118.341341 265 882ft 79kts
29-Dec-17 15:12 33.938947 -118.367082 264 412ft 73kts
29-Dec-17 15:13 33.936526 -118.390908 263 100ft 57kts
29-Dec-17 15:14 33.934727 -118.402303 232 114ft 21kts
29-Dec-17 15:15 33.933878 -118.404776 265 117ft 25kts
29-Dec-17 15:16 33.933034 -118.412821 99 120ft 9kts
29-Dec-17 15:17 33.932850 -118.409542 2 120ft 0kts
29-Dec-17 15:18 33.932850 -118.409542 2 120ft 0kts
29-Dec-17 15:19 33.932850 -118.409542 2 120ft 0kts
29-Dec-17 15:20 33.932850 -118.409542 2 120ft 0kts
29-Dec-17 15:21 33.932850 -118.409542 2 120ft 0kts

Navigation Log

Ident Type
1. KVNY Airport
2. PURMS Fix
3. KLAX Airport